Harrison, Pennsylvania
Current Conditions -  °F | °C
As of 5:56 AM on Sunday 23 Nov 2014 (Local Time) from KELZ Reporting Station
Overcast Overcast  
Wind Chill: 40°   Ceiling: 2400
Heat Index: 45°   Visibility: 10mi
Dew Point: 31°   Wind: 10mph
Humidity: 58%   Direction: 220°SW
Pressure: 30.06"   Gusts: 18mph
Location:  41.9546°N, 77.7018°W
Report Text: KELZ 231056Z AUTO 22009G16KT 10SM OVC024 07/M01 A3006 RMK AO2 SLP191 T00721006
Loading
Personal Weather Stations






























Interactive Weather Map New forecast layout! Learn more

10-Day Weather Forecast

Advertisements
Track Severe Weather on mobile